TimeMDT,TemperatureF,Dew PointF,Humidity,Sea Level PressureIn,VisibilityMPH,Wind Direction,Wind SpeedMPH,Gust SpeedMPH,PrecipitationIn,Events,Conditions,WindDirDegrees,DateUTC
12:53 AM,46.0,19.0,34,29.94,10.0,SE,8.1,-,N/A,,Clear,140,2012-11-02 06:53:00
1:53 AM,45.0,19.0,36,29.95,10.0,WNW,3.5,-,N/A,,Clear,300,2012-11-02 07:53:00
2:53 AM,43.0,21.0,42,29.96,10.0,SSE,6.9,-,N/A,,Clear,160,2012-11-02 08:53:00
3:53 AM,43.0,18.0,37,29.94,10.0,SE,6.9,-,N/A,,Clear,130,2012-11-02 09:53:00
4:53 AM,45.0,18.0,34,29.95,10.0,ESE,10.4,-,N/A,,Clear,120,2012-11-02 10:53:00
5:53 AM,42.1,19.0,40,29.99,10.0,SSE,5.8,-,N/A,,Clear,150,2012-11-02 11:53:00
6:53 AM,42.1,19.9,41,30.00,10.0,SSE,6.9,-,N/A,,Clear,150,2012-11-02 12:53:00
7:53 AM,41.0,19.0,41,30.03,10.0,Calm,Calm,-,N/A,,Clear,0,2012-11-02 13:53:00
8:53 AM,44.1,19.9,38,30.05,10.0,Calm,Calm,-,N/A,,Clear,0,2012-11-02 14:53:00
9:53 AM,51.1,19.0,28,30.04,10.0,Calm,Calm,-,N/A,,Clear,0,2012-11-02 15:53:00
10:53 AM,52.0,21.0,30,30.03,10.0,NW,4.6,-,N/A,,Clear,310,2012-11-02 16:53:00
11:53 AM,55.9,19.0,24,30.02,10.0,Calm,Calm,-,N/A,,Clear,0,2012-11-02 17:53:00
12:53 PM,59.0,21.0,23,30.00,10.0,NNW,5.8,-,N/A,,Clear,340,2012-11-02 18:53:00
1:53 PM,62.1,17.1,18,29.96,10.0,NNW,5.8,-,N/A,,Clear,330,2012-11-02 19:53:00
2:53 PM,62.1,17.1,18,29.95,10.0,NNW,3.5,-,N/A,,Clear,330,2012-11-02 20:53:00
3:53 PM,61.0,18.0,19,29.96,10.0,NW,6.9,-,N/A,,Clear,320,2012-11-02 21:53:00
4:53 PM,61.0,17.1,18,29.96,10.0,NW,10.4,-,N/A,,Clear,320,2012-11-02 22:53:00
5:53 PM,55.9,19.0,24,30.00,10.0,NNW,3.5,-,N/A,,Clear,330,2012-11-02 23:53:00
6:53 PM,48.9,19.0,31,30.04,10.0,SSE,6.9,-,N/A,,Clear,160,2012-11-03 00:53:00
7:53 PM,44.1,19.9,38,30.07,10.0,SE,8.1,-,N/A,,Clear,130,2012-11-03 01:53:00
8:53 PM,43.0,18.0,37,30.07,10.0,SE,10.4,-,N/A,,Clear,130,2012-11-03 02:53:00
9:53 PM,43.0,17.1,35,30.06,10.0,SE,11.5,-,N/A,,Clear,130,2012-11-03 03:53:00
10:53 PM,39.9,18.0,41,30.08,10.0,SSE,5.8,-,N/A,,Clear,160,2012-11-03 04:53:00
11:53 PM,37.9,17.1,43,30.09,10.0,SSE,8.1,-,N/A,,Clear,160,2012-11-03 05:53:00